sensor_id;sensor_type;location;lat;lon;timestamp;P1;durP1;ratioP1;P2;durP2;ratioP2
27491;SDS011;14927;51.210;6.838;2024-01-16T00:00:41;9.82;;;5.03;;
27491;SDS011;14927;51.210;6.838;2024-01-16T00:03:26;9.40;;;4.80;;
27491;SDS011;14927;51.210;6.838;2024-01-16T00:06:10;12.85;;;4.63;;
27491;SDS011;14927;51.210;6.838;2024-01-16T00:08:55;11.27;;;5.00;;
27491;SDS011;14927;51.210;6.838;2024-01-16T00:11:40;14.68;;;4.90;;
27491;SDS011;14927;51.210;6.838;2024-01-16T00:14:28;7.78;;;4.10;;
27491;SDS011;14927;51.210;6.838;2024-01-16T00:17:13;9.90;;;4.25;;
27491;SDS011;14927;51.210;6.838;2024-01-16T00:19:57;6.65;;;3.78;;
27491;SDS011;14927;51.210;6.838;2024-01-16T00:22:45;6.30;;;4.22;;
27491;SDS011;14927;51.210;6.838;2024-01-16T00:25:29;7.03;;;4.20;;
27491;SDS011;14927;51.210;6.838;2024-01-16T00:28:14;6.10;;;3.88;;
27491;SDS011;14927;51.210;6.838;2024-01-16T00:30:59;7.95;;;4.72;;
27491;SDS011;14927;51.210;6.838;2024-01-16T00:33:43;7.45;;;4.85;;
27491;SDS011;14927;51.210;6.838;2024-01-16T00:36:28;9.68;;;4.75;;
27491;SDS011;14927;51.210;6.838;2024-01-16T00:39:12;9.48;;;4.78;;
27491;SDS011;14927;51.210;6.838;2024-01-16T00:41:57;10.43;;;5.15;;
27491;SDS011;14927;51.210;6.838;2024-01-16T00:44:42;11.77;;;4.93;;
27491;SDS011;14927;51.210;6.838;2024-01-16T00:47:28;10.32;;;5.38;;
27491;SDS011;14927;51.210;6.838;2024-01-16T00:50:12;9.88;;;5.30;;
27491;SDS011;14927;51.210;6.838;2024-01-16T00:52:57;8.05;;;4.93;;
27491;SDS011;14927;51.210;6.838;2024-01-16T00:55:41;11.32;;;5.13;;
27491;SDS011;14927;51.210;6.838;2024-01-16T00:58:26;12.77;;;5.68;;
27491;SDS011;14927;51.210;6.838;2024-01-16T01:01:10;9.60;;;5.72;;
27491;SDS011;14927;51.210;6.838;2024-01-16T01:03:55;8.05;;;5.45;;
27491;SDS011;14927;51.210;6.838;2024-01-16T01:06:39;9.57;;;5.90;;
27491;SDS011;14927;51.210;6.838;2024-01-16T01:09:24;10.50;;;5.72;;
27491;SDS011;14927;51.210;6.838;2024-01-16T01:12:09;10.82;;;6.18;;
27491;SDS011;14927;51.210;6.838;2024-01-16T01:14:53;12.50;;;6.70;;
27491;SDS011;14927;51.210;6.838;2024-01-16T01:17:38;10.43;;;7.07;;
27491;SDS011;14927;51.210;6.838;2024-01-16T01:20:23;12.63;;;7.47;;
27491;SDS011;14927;51.210;6.838;2024-01-16T01:23:07;15.15;;;7.65;;
27491;SDS011;14927;51.210;6.838;2024-01-16T01:25:52;11.77;;;7.32;;
27491;SDS011;14927;51.210;6.838;2024-01-16T01:28:36;14.18;;;8.10;;
27491;SDS011;14927;51.210;6.838;2024-01-16T01:31:23;14.65;;;8.85;;
27491;SDS011;14927;51.210;6.838;2024-01-16T01:34:08;18.27;;;9.05;;
27491;SDS011;14927;51.210;6.838;2024-01-16T01:36:52;18.73;;;8.55;;
27491;SDS011;14927;51.210;6.838;2024-01-16T01:39:37;12.65;;;7.97;;
27491;SDS011;14927;51.210;6.838;2024-01-16T01:42:21;14.35;;;8.95;;
27491;SDS011;14927;51.210;6.838;2024-01-16T01:45:06;15.35;;;8.88;;
27491;SDS011;14927;51.210;6.838;2024-01-16T01:47:53;16.05;;;8.15;;
27491;SDS011;14927;51.210;6.838;2024-01-16T01:50:37;18.40;;;8.07;;
27491;SDS011;14927;51.210;6.838;2024-01-16T01:53:22;19.50;;;8.80;;
27491;SDS011;14927;51.210;6.838;2024-01-16T01:56:08;14.90;;;8.35;;
27491;SDS011;14927;51.210;6.838;2024-01-16T01:58:59;11.35;;;7.05;;
27491;SDS011;14927;51.210;6.838;2024-01-16T02:01:47;16.67;;;7.47;;
27491;SDS011;14927;51.210;6.838;2024-01-16T02:04:36;18.30;;;8.00;;
27491;SDS011;14927;51.210;6.838;2024-01-16T02:07:22;13.32;;;7.20;;
27491;SDS011;14927;51.210;6.838;2024-01-16T02:10:07;11.15;;;6.55;;
27491;SDS011;14927;51.210;6.838;2024-01-16T02:12:52;13.38;;;6.82;;
27491;SDS011;14927;51.210;6.838;2024-01-16T02:15:37;10.93;;;6.25;;
27491;SDS011;14927;51.210;6.838;2024-01-16T02:18:25;17.23;;;7.07;;
27491;SDS011;14927;51.210;6.838;2024-01-16T02:21:09;11.77;;;6.70;;
27491;SDS011;14927;51.210;6.838;2024-01-16T02:23:54;13.43;;;6.95;;
27491;SDS011;14927;51.210;6.838;2024-01-16T02:26:38;11.82;;;6.70;;
27491;SDS011;14927;51.210;6.838;2024-01-16T02:29:23;12.13;;;6.68;;
27491;SDS011;14927;51.210;6.838;2024-01-16T02:32:08;10.73;;;7.55;;
27491;SDS011;14927;51.210;6.838;2024-01-16T02:34:56;12.02;;;6.90;;
27491;SDS011;14927;51.210;6.838;2024-01-16T02:37:41;12.68;;;6.97;;
27491;SDS011;14927;51.210;6.838;2024-01-16T02:40:26;12.30;;;7.18;;
27491;SDS011;14927;51.210;6.838;2024-01-16T02:43:10;15.23;;;8.10;;
27491;SDS011;14927;51.210;6.838;2024-01-16T02:45:55;15.20;;;8.15;;
27491;SDS011;14927;51.210;6.838;2024-01-16T02:48:40;13.20;;;7.10;;
27491;SDS011;14927;51.210;6.838;2024-01-16T02:51:26;13.00;;;7.60;;
27491;SDS011;14927;51.210;6.838;2024-01-16T02:54:10;19.48;;;8.38;;
27491;SDS011;14927;51.210;6.838;2024-01-16T02:56:56;14.45;;;7.35;;
27491;SDS011;14927;51.210;6.838;2024-01-16T02:59:43;14.45;;;8.55;;
27491;SDS011;14927;51.210;6.838;2024-01-16T03:02:28;11.93;;;6.93;;
27491;SDS011;14927;51.210;6.838;2024-01-16T03:05:13;15.57;;;6.90;;
27491;SDS011;14927;51.210;6.838;2024-01-16T03:07:58;15.50;;;6.95;;
27491;SDS011;14927;51.210;6.838;2024-01-16T03:10:43;14.55;;;7.35;;
27491;SDS011;14927;51.210;6.838;2024-01-16T03:13:28;11.60;;;6.55;;
27491;SDS011;14927;51.210;6.838;2024-01-16T03:16:12;12.95;;;6.78;;
27491;SDS011;14927;51.210;6.838;2024-01-16T03:18:57;11.00;;;6.20;;
27491;SDS011;14927;51.210;6.838;2024-01-16T03:21:42;14.00;;;7.28;;
27491;SDS011;14927;51.210;6.838;2024-01-16T03:24:26;15.68;;;8.20;;
27491;SDS011;14927;51.210;6.838;2024-01-16T03:27:11;11.73;;;6.88;;
27491;SDS011;14927;51.210;6.838;2024-01-16T03:29:55;13.15;;;6.35;;
27491;SDS011;14927;51.210;6.838;2024-01-16T03:32:40;9.60;;;6.43;;
27491;SDS011;14927;51.210;6.838;2024-01-16T03:35:24;11.23;;;6.45;;
27491;SDS011;14927;51.210;6.838;2024-01-16T03:38:09;10.82;;;6.28;;
27491;SDS011;14927;51.210;6.838;2024-01-16T03:40:54;11.98;;;5.50;;
27491;SDS011;14927;51.210;6.838;2024-01-16T03:43:39;10.55;;;6.35;;
27491;SDS011;14927;51.210;6.838;2024-01-16T03:46:24;14.18;;;6.35;;
27491;SDS011;14927;51.210;6.838;2024-01-16T03:49:09;10.05;;;5.15;;
27491;SDS011;14927;51.210;6.838;2024-01-16T03:51:53;13.57;;;5.45;;
27491;SDS011;14927;51.210;6.838;2024-01-16T03:54:38;13.25;;;6.22;;
27491;SDS011;14927;51.210;6.838;2024-01-16T03:57:23;10.63;;;5.35;;
27491;SDS011;14927;51.210;6.838;2024-01-16T04:00:08;10.10;;;5.10;;
27491;SDS011;14927;51.210;6.838;2024-01-16T04:02:56;11.18;;;5.78;;
27491;SDS011;14927;51.210;6.838;2024-01-16T04:05:40;22.25;;;10.07;;
27491;SDS011;14927;51.210;6.838;2024-01-16T04:08:25;12.02;;;5.45;;
27491;SDS011;14927;51.210;6.838;2024-01-16T04:11:13;14.85;;;6.03;;
27491;SDS011;14927;51.210;6.838;2024-01-16T04:13:58;13.43;;;5.32;;
27491;SDS011;14927;51.210;6.838;2024-01-16T04:16:43;42.08;;;12.43;;
27491;SDS011;14927;51.210;6.838;2024-01-16T04:19:28;25.65;;;8.18;;
27491;SDS011;14927;51.210;6.838;2024-01-16T04:22:12;212.68;;;46.38;;
27491;SDS011;14927;51.210;6.838;2024-01-16T04:24:57;96.70;;;24.13;;
27491;SDS011;14927;51.210;6.838;2024-01-16T04:27:41;421.38;;;94.80;;
27491;SDS011;14927;51.210;6.838;2024-01-16T04:30:26;349.23;;;78.35;;
27491;SDS011;14927;51.210;6.838;2024-01-16T04:33:10;105.05;;;25.70;;
27491;SDS011;14927;51.210;6.838;2024-01-16T04:35:55;24.10;;;8.32;;
27491;SDS011;14927;51.210;6.838;2024-01-16T04:38:40;12.40;;;5.00;;
27491;SDS011;14927;51.210;6.838;2024-01-16T04:41:24;9.45;;;4.25;;
27491;SDS011;14927;51.210;6.838;2024-01-16T04:44:09;6.85;;;4.00;;
27491;SDS011;14927;51.210;6.838;2024-01-16T04:46:53;8.45;;;4.07;;
27491;SDS011;14927;51.210;6.838;2024-01-16T04:49:38;7.35;;;4.05;;
27491;SDS011;14927;51.210;6.838;2024-01-16T04:52:26;8.73;;;4.07;;
27491;SDS011;14927;51.210;6.838;2024-01-16T04:55:11;7.82;;;4.30;;
27491;SDS011;14927;51.210;6.838;2024-01-16T04:57:55;10.82;;;4.90;;
27491;SDS011;14927;51.210;6.838;2024-01-16T05:00:40;10.63;;;4.63;;
27491;SDS011;14927;51.210;6.838;2024-01-16T05:03:25;9.30;;;4.32;;
27491;SDS011;14927;51.210;6.838;2024-01-16T05:06:13;9.68;;;4.55;;
27491;SDS011;14927;51.210;6.838;2024-01-16T05:08:58;7.82;;;4.88;;
27491;SDS011;14927;51.210;6.838;2024-01-16T05:11:43;14.23;;;5.97;;
27491;SDS011;14927;51.210;6.838;2024-01-16T05:14:27;11.88;;;5.55;;
27491;SDS011;14927;51.210;6.838;2024-01-16T05:17:12;12.35;;;6.13;;
27491;SDS011;14927;51.210;6.838;2024-01-16T05:19:57;16.48;;;5.90;;
27491;SDS011;14927;51.210;6.838;2024-01-16T05:22:41;11.18;;;5.53;;
27491;SDS011;14927;51.210;6.838;2024-01-16T05:25:26;12.43;;;6.13;;
27491;SDS011;14927;51.210;6.838;2024-01-16T05:28:11;15.18;;;5.47;;
27491;SDS011;14927;51.210;6.838;2024-01-16T05:30:55;12.07;;;5.72;;
27491;SDS011;14927;51.210;6.838;2024-01-16T05:33:40;18.33;;;5.50;;
27491;SDS011;14927;51.210;6.838;2024-01-16T05:36:26;10.35;;;5.88;;
27491;SDS011;14927;51.210;6.838;2024-01-16T05:39:10;11.90;;;5.07;;
27491;SDS011;14927;51.210;6.838;2024-01-16T05:41:55;15.15;;;5.78;;
27491;SDS011;14927;51.210;6.838;2024-01-16T05:44:40;14.60;;;5.78;;
27491;SDS011;14927;51.210;6.838;2024-01-16T05:47:24;21.80;;;6.38;;
27491;SDS011;14927;51.210;6.838;2024-01-16T05:50:11;12.68;;;5.97;;
27491;SDS011;14927;51.210;6.838;2024-01-16T05:52:56;18.35;;;6.03;;
27491;SDS011;14927;51.210;6.838;2024-01-16T05:55:41;15.93;;;6.07;;
27491;SDS011;14927;51.210;6.838;2024-01-16T05:58:25;18.25;;;6.00;;
27491;SDS011;14927;51.210;6.838;2024-01-16T06:01:10;12.32;;;5.43;;
27491;SDS011;14927;51.210;6.838;2024-01-16T06:03:57;18.08;;;6.05;;
27491;SDS011;14927;51.210;6.838;2024-01-16T06:06:42;15.68;;;5.03;;
27491;SDS011;14927;51.210;6.838;2024-01-16T06:09:28;12.25;;;5.22;;
27491;SDS011;14927;51.210;6.838;2024-01-16T06:12:13;13.05;;;5.20;;
27491;SDS011;14927;51.210;6.838;2024-01-16T06:14:58;11.95;;;4.82;;
27491;SDS011;14927;51.210;6.838;2024-01-16T06:17:42;14.70;;;5.13;;
27491;SDS011;14927;51.210;6.838;2024-01-16T06:20:27;15.38;;;5.03;;
27491;SDS011;14927;51.210;6.838;2024-01-16T06:23:13;13.55;;;5.13;;
27491;SDS011;14927;51.210;6.838;2024-01-16T06:25:58;13.07;;;4.57;;
27491;SDS011;14927;51.210;6.838;2024-01-16T06:28:44;15.98;;;4.45;;
27491;SDS011;14927;51.210;6.838;2024-01-16T06:31:29;15.27;;;4.88;;
27491;SDS011;14927;51.210;6.838;2024-01-16T06:34:14;14.70;;;4.65;;
27491;SDS011;14927;51.210;6.838;2024-01-16T06:36:59;11.75;;;4.63;;
27491;SDS011;14927;51.210;6.838;2024-01-16T06:39:43;15.50;;;4.85;;
27491;SDS011;14927;51.210;6.838;2024-01-16T06:42:28;17.70;;;4.30;;
27491;SDS011;14927;51.210;6.838;2024-01-16T06:45:12;15.25;;;4.10;;
27491;SDS011;14927;51.210;6.838;2024-01-16T06:47:59;16.60;;;3.88;;
27491;SDS011;14927;51.210;6.838;2024-01-16T06:50:43;15.10;;;4.25;;
27491;SDS011;14927;51.210;6.838;2024-01-16T06:53:28;12.25;;;3.88;;
27491;SDS011;14927;51.210;6.838;2024-01-16T06:56:13;19.38;;;3.97;;
27491;SDS011;14927;51.210;6.838;2024-01-16T06:58:57;13.68;;;3.50;;
27491;SDS011;14927;51.210;6.838;2024-01-16T07:01:42;12.40;;;3.60;;
27491;SDS011;14927;51.210;6.838;2024-01-16T07:04:27;15.73;;;3.88;;
27491;SDS011;14927;51.210;6.838;2024-01-16T07:07:12;16.95;;;4.28;;
27491;SDS011;14927;51.210;6.838;2024-01-16T07:09:56;15.02;;;4.30;;
27491;SDS011;14927;51.210;6.838;2024-01-16T07:12:41;10.75;;;3.50;;
27491;SDS011;14927;51.210;6.838;2024-01-16T07:15:25;15.45;;;3.53;;
27491;SDS011;14927;51.210;6.838;2024-01-16T07:18:10;13.45;;;4.18;;
27491;SDS011;14927;51.210;6.838;2024-01-16T07:20:55;15.18;;;4.00;;
27491;SDS011;14927;51.210;6.838;2024-01-16T07:23:40;13.52;;;3.83;;
27491;SDS011;14927;51.210;6.838;2024-01-16T07:26:25;11.00;;;3.50;;
27491;SDS011;14927;51.210;6.838;2024-01-16T07:29:09;14.60;;;3.47;;
27491;SDS011;14927;51.210;6.838;2024-01-16T07:31:54;16.20;;;3.80;;
27491;SDS011;14927;51.210;6.838;2024-01-16T07:34:38;15.52;;;3.45;;
27491;SDS011;14927;51.210;6.838;2024-01-16T07:37:23;8.98;;;3.20;;
27491;SDS011;14927;51.210;6.838;2024-01-16T07:40:08;12.98;;;3.78;;
27491;SDS011;14927;51.210;6.838;2024-01-16T07:42:53;14.55;;;3.65;;
27491;SDS011;14927;51.210;6.838;2024-01-16T07:45:37;13.38;;;3.25;;
27491;SDS011;14927;51.210;6.838;2024-01-16T07:48:22;12.50;;;3.42;;
27491;SDS011;14927;51.210;6.838;2024-01-16T07:51:07;13.50;;;3.67;;
27491;SDS011;14927;51.210;6.838;2024-01-16T07:54:05;9.43;;;3.08;;
27491;SDS011;14927;51.210;6.838;2024-01-16T07:56:53;15.35;;;3.53;;
27491;SDS011;14927;51.210;6.838;2024-01-16T07:59:38;10.90;;;3.00;;
27491;SDS011;14927;51.210;6.838;2024-01-16T08:02:26;11.43;;;3.10;;
27491;SDS011;14927;51.210;6.838;2024-01-16T08:05:15;11.45;;;3.28;;
27491;SDS011;14927;51.210;6.838;2024-01-16T08:08:00;13.63;;;3.20;;
27491;SDS011;14927;51.210;6.838;2024-01-16T08:10:45;10.70;;;2.45;;
27491;SDS011;14927;51.210;6.838;2024-01-16T08:13:29;10.02;;;2.55;;
27491;SDS011;14927;51.210;6.838;2024-01-16T08:16:14;12.00;;;3.45;;
27491;SDS011;14927;51.210;6.838;2024-01-16T08:18:58;13.00;;;3.33;;
27491;SDS011;14927;51.210;6.838;2024-01-16T08:21:43;12.63;;;3.30;;
27491;SDS011;14927;51.210;6.838;2024-01-16T08:24:28;12.77;;;3.42;;
27491;SDS011;14927;51.210;6.838;2024-01-16T08:27:12;13.05;;;3.45;;
27491;SDS011;14927;51.210;6.838;2024-01-16T08:29:57;17.05;;;4.03;;
27491;SDS011;14927;51.210;6.838;2024-01-16T08:32:42;11.43;;;3.22;;
27491;SDS011;14927;51.210;6.838;2024-01-16T08:35:26;14.45;;;3.47;;
27491;SDS011;14927;51.210;6.838;2024-01-16T08:38:11;9.43;;;2.85;;
27491;SDS011;14927;51.210;6.838;2024-01-16T08:40:56;13.13;;;3.67;;
27491;SDS011;14927;51.210;6.838;2024-01-16T08:43:40;10.55;;;3.22;;
27491;SDS011;14927;51.210;6.838;2024-01-16T08:46:25;14.98;;;3.80;;
27491;SDS011;14927;51.210;6.838;2024-01-16T08:49:09;14.30;;;3.42;;
27491;SDS011;14927;51.210;6.838;2024-01-16T08:51:55;10.60;;;3.25;;
27491;SDS011;14927;51.210;6.838;2024-01-16T08:54:40;13.68;;;3.45;;
27491;SDS011;14927;51.210;6.838;2024-01-16T08:57:27;17.95;;;4.63;;
27491;SDS011;14927;51.210;6.838;2024-01-16T09:00:12;11.57;;;3.40;;
27491;SDS011;14927;51.210;6.838;2024-01-16T09:02:57;10.68;;;3.85;;
27491;SDS011;14927;51.210;6.838;2024-01-16T09:05:42;12.13;;;3.83;;
27491;SDS011;14927;51.210;6.838;2024-01-16T09:08:26;12.27;;;3.30;;
27491;SDS011;14927;51.210;6.838;2024-01-16T09:11:11;12.57;;;3.65;;
27491;SDS011;14927;51.210;6.838;2024-01-16T09:13:55;10.05;;;2.92;;
27491;SDS011;14927;51.210;6.838;2024-01-16T09:16:40;13.00;;;3.10;;
27491;SDS011;14927;51.210;6.838;2024-01-16T09:19:26;12.52;;;3.63;;
27491;SDS011;14927;51.210;6.838;2024-01-16T09:22:10;12.73;;;3.67;;
27491;SDS011;14927;51.210;6.838;2024-01-16T09:24:55;10.90;;;2.97;;
27491;SDS011;14927;51.210;6.838;2024-01-16T09:27:39;10.27;;;2.97;;
27491;SDS011;14927;51.210;6.838;2024-01-16T09:30:24;14.32;;;3.30;;
27491;SDS011;14927;51.210;6.838;2024-01-16T09:33:09;11.73;;;3.53;;
27491;SDS011;14927;51.210;6.838;2024-01-16T09:35:54;11.95;;;3.22;;
27491;SDS011;14927;51.210;6.838;2024-01-16T09:38:39;17.45;;;3.20;;
27491;SDS011;14927;51.210;6.838;2024-01-16T09:41:23;13.85;;;3.28;;
27491;SDS011;14927;51.210;6.838;2024-01-16T09:44:08;12.95;;;3.55;;
27491;SDS011;14927;51.210;6.838;2024-01-16T09:46:53;10.93;;;3.25;;
27491;SDS011;14927;51.210;6.838;2024-01-16T09:49:42;10.90;;;3.00;;
27491;SDS011;14927;51.210;6.838;2024-01-16T09:52:29;12.32;;;3.38;;
27491;SDS011;14927;51.210;6.838;2024-01-16T09:55:14;14.02;;;3.33;;
27491;SDS011;14927;51.210;6.838;2024-01-16T09:57:59;11.68;;;3.03;;
27491;SDS011;14927;51.210;6.838;2024-01-16T10:00:47;12.10;;;3.15;;
27491;SDS011;14927;51.210;6.838;2024-01-16T10:03:33;16.52;;;3.30;;
27491;SDS011;14927;51.210;6.838;2024-01-16T10:06:19;11.20;;;4.00;;
27491;SDS011;14927;51.210;6.838;2024-01-16T10:09:04;13.90;;;3.97;;
27491;SDS011;14927;51.210;6.838;2024-01-16T10:11:50;12.68;;;3.17;;
27491;SDS011;14927;51.210;6.838;2024-01-16T10:14:36;14.50;;;3.50;;
27491;SDS011;14927;51.210;6.838;2024-01-16T10:17:22;11.02;;;3.40;;
27491;SDS011;14927;51.210;6.838;2024-01-16T10:20:34;15.83;;;3.87;;
27491;SDS011;14927;51.210;6.838;2024-01-16T10:23:26;11.70;;;3.20;;
27491;SDS011;14927;51.210;6.838;2024-01-16T10:26:13;16.08;;;3.63;;
27491;SDS011;14927;51.210;6.838;2024-01-16T10:29:02;9.32;;;2.90;;
27491;SDS011;14927;51.210;6.838;2024-01-16T10:31:50;14.20;;;3.60;;
27491;SDS011;14927;51.210;6.838;2024-01-16T10:34:38;10.20;;;3.15;;
27491;SDS011;14927;51.210;6.838;2024-01-16T10:37:23;13.00;;;3.25;;
27491;SDS011;14927;51.210;6.838;2024-01-16T10:40:07;16.15;;;3.38;;
27491;SDS011;14927;51.210;6.838;2024-01-16T10:42:59;13.95;;;3.42;;
27491;SDS011;14927;51.210;6.838;2024-01-16T10:45:47;13.27;;;3.42;;
27491;SDS011;14927;51.210;6.838;2024-01-16T10:48:31;13.20;;;3.10;;
27491;SDS011;14927;51.210;6.838;2024-01-16T10:51:16;12.85;;;2.92;;
27491;SDS011;14927;51.210;6.838;2024-01-16T10:54:04;12.82;;;3.80;;
27491;SDS011;14927;51.210;6.838;2024-01-16T11:02:27;13.02;;;3.83;;
27491;SDS011;14927;51.210;6.838;2024-01-16T11:05:19;11.25;;;3.47;;
27491;SDS011;14927;51.210;6.838;2024-01-16T11:08:05;8.55;;;3.85;;
27491;SDS011;14927;51.210;6.838;2024-01-16T11:10:53;16.88;;;5.47;;
27491;SDS011;14927;51.210;6.838;2024-01-16T11:13:38;13.45;;;3.88;;
27491;SDS011;14927;51.210;6.838;2024-01-16T11:16:24;11.23;;;3.47;;
27491;SDS011;14927;51.210;6.838;2024-01-16T11:19:10;13.95;;;3.60;;
27491;SDS011;14927;51.210;6.838;2024-01-16T11:21:55;12.77;;;3.88;;
27491;SDS011;14927;51.210;6.838;2024-01-16T11:24:40;15.35;;;3.75;;
27491;SDS011;14927;51.210;6.838;2024-01-16T11:27:26;16.48;;;3.40;;
27491;SDS011;14927;51.210;6.838;2024-01-16T11:30:11;9.23;;;3.25;;
27491;SDS011;14927;51.210;6.838;2024-01-16T11:32:56;12.57;;;3.60;;
27491;SDS011;14927;51.210;6.838;2024-01-16T11:35:43;15.13;;;3.30;;
27491;SDS011;14927;51.210;6.838;2024-01-16T11:38:27;19.20;;;4.03;;
27491;SDS011;14927;51.210;6.838;2024-01-16T11:47:34;11.88;;;3.58;;
27491;SDS011;14927;51.210;6.838;2024-01-16T11:50:28;11.05;;;3.28;;
27491;SDS011;14927;51.210;6.838;2024-01-16T12:02:51;12.00;;;4.03;;
27491;SDS011;14927;51.210;6.838;2024-01-16T12:05:59;7.38;;;3.17;;
27491;SDS011;14927;51.210;6.838;2024-01-16T12:08:45;10.00;;;3.33;;
27491;SDS011;14927;51.210;6.838;2024-01-16T12:11:30;15.15;;;3.67;;
27491;SDS011;14927;51.210;6.838;2024-01-16T12:14:14;18.38;;;3.97;;
27491;SDS011;14927;51.210;6.838;2024-01-16T12:17:11;9.38;;;2.97;;
27491;SDS011;14927;51.210;6.838;2024-01-16T12:19:57;14.00;;;4.53;;
27491;SDS011;14927;51.210;6.838;2024-01-16T12:22:41;18.23;;;7.43;;
27491;SDS011;14927;51.210;6.838;2024-01-16T12:25:27;13.23;;;4.22;;
27491;SDS011;14927;51.210;6.838;2024-01-16T12:28:14;13.35;;;3.67;;
27491;SDS011;14927;51.210;6.838;2024-01-16T12:31:03;9.80;;;3.25;;
27491;SDS011;14927;51.210;6.838;2024-01-16T12:33:48;11.60;;;3.50;;
27491;SDS011;14927;51.210;6.838;2024-01-16T12:36:33;8.77;;;3.42;;
27491;SDS011;14927;51.210;6.838;2024-01-16T12:39:18;12.05;;;3.38;;
27491;SDS011;14927;51.210;6.838;2024-01-16T12:42:03;11.85;;;3.55;;
27491;SDS011;14927;51.210;6.838;2024-01-16T12:44:48;11.07;;;3.70;;
27491;SDS011;14927;51.210;6.838;2024-01-16T12:47:33;8.52;;;3.20;;
27491;SDS011;14927;51.210;6.838;2024-01-16T12:50:21;16.02;;;3.70;;
27491;SDS011;14927;51.210;6.838;2024-01-16T12:53:08;17.00;;;3.47;;
27491;SDS011;14927;51.210;6.838;2024-01-16T12:55:58;18.80;;;3.97;;
27491;SDS011;14927;51.210;6.838;2024-01-16T12:58:43;12.07;;;3.05;;
27491;SDS011;14927;51.210;6.838;2024-01-16T13:01:28;15.98;;;3.50;;
27491;SDS011;14927;51.210;6.838;2024-01-16T13:04:16;14.35;;;3.80;;
27491;SDS011;14927;51.210;6.838;2024-01-16T13:07:01;12.82;;;3.80;;
27491;SDS011;14927;51.210;6.838;2024-01-16T13:09:46;14.27;;;4.00;;
27491;SDS011;14927;51.210;6.838;2024-01-16T13:12:31;13.05;;;3.50;;
27491;SDS011;14927;51.210;6.838;2024-01-16T13:15:17;10.07;;;3.80;;
27491;SDS011;14927;51.210;6.838;2024-01-16T13:18:01;10.63;;;3.08;;
27491;SDS011;14927;51.210;6.838;2024-01-16T13:20:46;12.93;;;3.85;;
27491;SDS011;14927;51.210;6.838;2024-01-16T13:23:33;8.90;;;3.35;;
27491;SDS011;14927;51.210;6.838;2024-01-16T13:26:18;9.15;;;3.85;;
27491;SDS011;14927;51.210;6.838;2024-01-16T13:29:04;11.32;;;4.13;;
27491;SDS011;14927;51.210;6.838;2024-01-16T13:31:49;9.30;;;3.22;;
27491;SDS011;14927;51.210;6.838;2024-01-16T13:34:38;12.32;;;4.03;;
27491;SDS011;14927;51.210;6.838;2024-01-16T13:37:25;13.20;;;4.05;;
27491;SDS011;14927;51.210;6.838;2024-01-16T13:40:10;14.75;;;3.95;;
27491;SDS011;14927;51.210;6.838;2024-01-16T13:42:59;9.77;;;3.25;;
27491;SDS011;14927;51.210;6.838;2024-01-16T13:45:44;8.90;;;3.53;;
27491;SDS011;14927;51.210;6.838;2024-01-16T13:48:33;14.95;;;3.92;;
27491;SDS011;14927;51.210;6.838;2024-01-16T13:51:18;12.80;;;4.20;;
27491;SDS011;14927;51.210;6.838;2024-01-16T13:54:03;12.30;;;3.45;;
27491;SDS011;14927;51.210;6.838;2024-01-16T13:56:49;11.82;;;3.83;;
27491;SDS011;14927;51.210;6.838;2024-01-16T13:59:36;14.88;;;4.50;;
27491;SDS011;14927;51.210;6.838;2024-01-16T14:02:22;8.13;;;3.22;;
27491;SDS011;14927;51.210;6.838;2024-01-16T14:05:07;10.82;;;3.42;;
27491;SDS011;14927;51.210;6.838;2024-01-16T14:07:56;9.00;;;3.53;;
27491;SDS011;14927;51.210;6.838;2024-01-16T14:10:40;11.07;;;3.60;;
27491;SDS011;14927;51.210;6.838;2024-01-16T14:13:25;9.93;;;3.38;;
27491;SDS011;14927;51.210;6.838;2024-01-16T14:16:10;14.75;;;3.67;;
27491;SDS011;14927;51.210;6.838;2024-01-16T14:18:54;12.18;;;4.07;;
27491;SDS011;14927;51.210;6.838;2024-01-16T14:21:39;12.63;;;4.10;;
27491;SDS011;14927;51.210;6.838;2024-01-16T14:24:24;10.07;;;3.83;;
27491;SDS011;14927;51.210;6.838;2024-01-16T14:27:08;8.32;;;3.33;;
27491;SDS011;14927;51.210;6.838;2024-01-16T14:29:54;16.00;;;3.42;;
27491;SDS011;14927;51.210;6.838;2024-01-16T14:32:42;12.85;;;4.50;;
27491;SDS011;14927;51.210;6.838;2024-01-16T14:35:28;13.35;;;3.70;;
27491;SDS011;14927;51.210;6.838;2024-01-16T14:38:13;18.00;;;3.88;;
27491;SDS011;14927;51.210;6.838;2024-01-16T14:40:57;10.52;;;3.42;;
27491;SDS011;14927;51.210;6.838;2024-01-16T14:43:42;10.45;;;3.83;;
27491;SDS011;14927;51.210;6.838;2024-01-16T14:46:27;14.07;;;3.20;;
27491;SDS011;14927;51.210;6.838;2024-01-16T14:49:11;10.20;;;3.75;;
27491;SDS011;14927;51.210;6.838;2024-01-16T14:51:56;16.33;;;4.00;;
27491;SDS011;14927;51.210;6.838;2024-01-16T14:54:43;15.88;;;3.45;;
27491;SDS011;14927;51.210;6.838;2024-01-16T14:57:28;12.02;;;4.30;;
27491;SDS011;14927;51.210;6.838;2024-01-16T15:00:15;8.30;;;3.33;;
27491;SDS011;14927;51.210;6.838;2024-01-16T15:03:03;11.52;;;3.70;;
27491;SDS011;14927;51.210;6.838;2024-01-16T15:05:49;11.57;;;4.00;;
27491;SDS011;14927;51.210;6.838;2024-01-16T15:08:36;12.98;;;3.85;;
27491;SDS011;14927;51.210;6.838;2024-01-16T15:11:20;11.00;;;3.83;;
27491;SDS011;14927;51.210;6.838;2024-01-16T15:14:05;8.32;;;3.40;;
27491;SDS011;14927;51.210;6.838;2024-01-16T15:16:50;7.75;;;3.35;;
27491;SDS011;14927;51.210;6.838;2024-01-16T15:19:36;5.82;;;2.95;;
27491;SDS011;14927;51.210;6.838;2024-01-16T15:22:21;13.20;;;4.25;;
27491;SDS011;14927;51.210;6.838;2024-01-16T15:25:06;11.20;;;3.83;;
27491;SDS011;14927;51.210;6.838;2024-01-16T15:27:51;9.65;;;3.85;;
27491;SDS011;14927;51.210;6.838;2024-01-16T15:30:39;9.23;;;3.78;;
27491;SDS011;14927;51.210;6.838;2024-01-16T15:33:24;8.32;;;3.92;;
27491;SDS011;14927;51.210;6.838;2024-01-16T15:36:11;9.27;;;3.90;;
27491;SDS011;14927;51.210;6.838;2024-01-16T15:38:55;9.02;;;3.63;;
27491;SDS011;14927;51.210;6.838;2024-01-16T15:41:40;12.85;;;3.65;;
27491;SDS011;14927;51.210;6.838;2024-01-16T15:44:28;10.25;;;3.78;;
27491;SDS011;14927;51.210;6.838;2024-01-16T15:47:12;14.63;;;3.67;;
27491;SDS011;14927;51.210;6.838;2024-01-16T15:49:57;13.07;;;3.88;;
27491;SDS011;14927;51.210;6.838;2024-01-16T15:52:41;11.95;;;4.18;;
27491;SDS011;14927;51.210;6.838;2024-01-16T15:55:26;11.85;;;4.78;;
27491;SDS011;14927;51.210;6.838;2024-01-16T15:58:11;14.23;;;4.55;;
27491;SDS011;14927;51.210;6.838;2024-01-16T16:00:55;13.65;;;4.70;;
27491;SDS011;14927;51.210;6.838;2024-01-16T16:03:40;11.65;;;4.85;;
27491;SDS011;14927;51.210;6.838;2024-01-16T16:06:25;11.63;;;4.38;;
27491;SDS011;14927;51.210;6.838;2024-01-16T16:09:10;12.18;;;4.93;;
27491;SDS011;14927;51.210;6.838;2024-01-16T16:11:54;10.20;;;5.22;;
27491;SDS011;14927;51.210;6.838;2024-01-16T16:14:40;17.20;;;4.75;;
27491;SDS011;14927;51.210;6.838;2024-01-16T16:17:24;12.65;;;5.07;;
27491;SDS011;14927;51.210;6.838;2024-01-16T16:20:09;13.57;;;5.32;;
27491;SDS011;14927;51.210;6.838;2024-01-16T16:22:55;10.48;;;4.93;;
27491;SDS011;14927;51.210;6.838;2024-01-16T16:25:44;11.65;;;5.05;;
27491;SDS011;14927;51.210;6.838;2024-01-16T16:28:30;11.38;;;5.05;;
27491;SDS011;14927;51.210;6.838;2024-01-16T16:31:15;15.93;;;4.97;;
27491;SDS011;14927;51.210;6.838;2024-01-16T16:34:04;17.13;;;5.70;;
27491;SDS011;14927;51.210;6.838;2024-01-16T16:36:55;13.68;;;4.93;;
27491;SDS011;14927;51.210;6.838;2024-01-16T16:39:40;10.18;;;4.90;;
27491;SDS011;14927;51.210;6.838;2024-01-16T16:42:26;11.23;;;5.32;;
27491;SDS011;14927;51.210;6.838;2024-01-16T16:45:11;13.25;;;5.22;;